createdAt,value
2023-01-22T00:06:31.046Z,0.23
2023-01-22T00:16:37.302Z,0.15
2023-01-22T00:26:46.103Z,0.14
2023-01-22T00:36:55.257Z,0.06
2023-01-22T00:47:02.409Z,0.11
2023-01-22T00:57:06.944Z,0.02
2023-01-22T01:07:13.604Z,0.07
2023-01-22T01:17:17.357Z,0.05
2023-01-22T01:27:20.968Z,0.16
2023-01-22T01:37:26.276Z,0.26
2023-01-22T01:47:37.314Z,0.09
2023-01-22T01:57:42.274Z,0.11
2023-01-22T02:07:48.430Z,0.24
2023-01-22T02:17:52.121Z,0.17
2023-01-22T02:27:55.716Z,0.20
2023-01-22T02:38:01.030Z,0.31
2023-01-22T02:48:10.263Z,0.40
2023-01-22T02:58:14.744Z,0.62
2023-01-22T03:08:27.921Z,0.63
2023-01-22T03:18:51.366Z,0.61
2023-01-22T03:28:55.607Z,0.57
2023-01-22T03:39:03.363Z,0.71
2023-01-22T03:49:10.434Z,0.83
2023-01-22T03:59:14.170Z,0.88
2023-01-22T04:09:21.008Z,0.84
2023-01-22T04:19:31.135Z,0.81
2023-01-22T04:30:06.455Z,0.71
2023-01-22T04:40:12.527Z,0.62
2023-01-22T04:50:20.871Z,0.70
2023-01-22T05:00:29.899Z,0.53
2023-01-22T05:10:35.085Z,0.57
2023-01-22T05:20:45.617Z,0.65
2023-01-22T05:30:53.301Z,0.79
2023-01-22T05:41:12.911Z,0.77
2023-01-22T05:51:23.372Z,0.82
2023-01-22T06:01:29.051Z,0.82
2023-01-22T06:11:34.685Z,0.78
2023-01-22T06:21:44.018Z,0.70
2023-01-22T06:31:54.001Z,0.68
2023-01-22T06:42:01.225Z,0.66
2023-01-22T06:52:07.476Z,0.67
2023-01-22T07:02:17.241Z,0.62
2023-01-22T07:12:22.975Z,0.72
2023-01-22T07:22:33.354Z,0.55
2023-01-22T07:32:39.236Z,0.62
2023-01-22T07:42:48.013Z,0.80
2023-01-22T07:52:52.039Z,1.24
2023-01-22T08:03:10.945Z,1.21
2023-01-22T08:13:19.874Z,1.21
2023-01-22T08:23:25.249Z,1.17
2023-01-22T08:33:37.479Z,1.21
2023-01-22T08:43:46.369Z,1.16
2023-01-22T08:53:59.509Z,1.18
2023-01-22T09:04:23.832Z,1.00
2023-01-22T09:14:30.845Z,1.07
2023-01-22T09:24:38.242Z,1.26
2023-01-22T09:34:41.968Z,1.33
2023-01-22T09:44:50.449Z,1.27
2023-01-22T09:54:54.522Z,1.45
2023-01-22T10:05:22.433Z,1.74
2023-01-22T10:15:28.176Z,1.82
2023-01-22T10:25:33.835Z,1.95
2023-01-22T10:35:48.147Z,2.10
2023-01-22T10:46:00.034Z,2.17
2023-01-22T10:56:12.458Z,2.27
2023-01-22T11:06:39.754Z,2.14
2023-01-22T11:16:51.747Z,2.15
2023-01-22T11:27:27.395Z,2.22
2023-01-22T11:38:04.951Z,2.29
2023-01-22T11:48:21.426Z,2.10
2023-01-22T11:58:50.355Z,2.08
2023-01-22T12:09:14.287Z,1.95
2023-01-22T12:19:26.837Z,1.98
2023-01-22T12:29:55.853Z,1.98
2023-01-22T12:40:18.933Z,1.79
2023-01-22T12:50:26.878Z,1.62
2023-01-22T13:00:39.694Z,1.73
2023-01-22T13:11:37.354Z,1.81
2023-01-22T13:21:41.910Z,1.77
2023-01-22T13:32:20.036Z,1.64
2023-01-22T13:42:24.983Z,1.64
2023-01-22T13:52:32.093Z,1.82
2023-01-22T14:02:36.057Z,1.53
2023-01-22T14:12:40.158Z,1.45
2023-01-22T14:22:43.849Z,1.39
2023-01-22T14:32:47.941Z,1.30
2023-01-22T14:42:53.423Z,1.25
2023-01-22T14:52:57.735Z,1.11
2023-01-22T15:03:01.843Z,1.02
2023-01-22T15:13:05.912Z,1.01
2023-01-22T15:23:09.728Z,0.91
2023-01-22T15:33:13.655Z,0.94
2023-01-22T15:43:17.677Z,0.85
2023-01-22T15:53:23.203Z,0.93
2023-01-22T16:03:27.608Z,0.91
2023-01-22T16:13:33.852Z,0.89
2023-01-22T16:23:42.202Z,0.95
2023-01-22T16:33:50.151Z,1.12
2023-01-22T16:44:10.983Z,1.10
2023-01-22T16:54:22.053Z,1.26
2023-01-22T17:04:28.330Z,1.13
2023-01-22T17:14:36.157Z,1.18
2023-01-22T17:24:41.673Z,1.13
2023-01-22T17:34:48.848Z,1.15
2023-01-22T17:45:09.791Z,1.04
2023-01-22T17:55:14.282Z,0.95
2023-01-22T18:05:20.721Z,0.97
2023-01-22T18:15:24.798Z,1.00
2023-01-22T18:25:30.613Z,1.16
2023-01-22T18:35:34.908Z,1.14
2023-01-22T18:45:41.462Z,1.08
2023-01-22T18:55:45.467Z,1.20
2023-01-22T19:05:49.932Z,1.29
2023-01-22T19:15:53.760Z,1.35
2023-01-22T19:26:11.624Z,1.29
2023-01-22T19:36:15.754Z,1.29
2023-01-22T19:46:21.776Z,1.39
2023-01-22T19:56:29.813Z,1.42
2023-01-22T20:06:33.774Z,1.30
2023-01-22T20:16:37.533Z,1.26
2023-01-22T20:26:41.603Z,1.01
2023-01-22T20:36:45.520Z,0.96
2023-01-22T20:46:51.721Z,0.94
2023-01-22T20:56:57.413Z,1.10
2023-01-22T21:07:04.160Z,1.33
2023-01-22T21:17:12.845Z,1.24
2023-01-22T21:27:18.319Z,1.04
2023-01-22T21:37:22.600Z,1.17
2023-01-22T21:47:30.661Z,1.14
2023-01-22T21:57:34.536Z,1.07
2023-01-22T22:07:40.243Z,0.98
2023-01-22T22:17:45.036Z,0.85
2023-01-22T22:27:48.769Z,0.69
2023-01-22T22:37:52.728Z,0.74
2023-01-22T22:47:59.511Z,0.64
2023-01-22T22:58:03.227Z,0.59
2023-01-22T23:08:08.964Z,0.60
2023-01-22T23:18:12.602Z,0.60
2023-01-22T23:28:16.935Z,0.59
2023-01-22T23:38:22.154Z,0.67
2023-01-22T23:48:26.040Z,0.77
2023-01-22T23:58:30.667Z,0.61
